Time;durP1;ratioP1;P1;durP2;ratioP2;P2;SDS_P1;SDS_P2;PMS_P1;PMS_P2;Temp;Humidity;BMP_temperature;BMP_pressure;BME280_temperature;BME280_humidity;BME280_pressure;Samples;Min_cycle;Max_cycle;Signal;HPM_P1;HPM_P2
2023/05/12 00:00:54;;;;;;;;;;;14.60;99.90;;;;;;4954860;28;19922;-64
2023/05/12 00:03:19;;;;;;;;;;;14.50;99.90;;;;;;4950640;28;19929;-63
2023/05/12 00:05:45;;;;;;;;;;;14.40;99.90;;;;;;4951515;28;19913;-65
2023/05/12 00:08:11;;;;;;;;;;;14.50;99.90;;;;;;4942373;28;19918;-64
2023/05/12 00:10:36;;;;;;;;;;;14.50;99.90;;;;;;4949445;28;19914;-65
2023/05/12 00:13:02;;;;;;;;;;;14.50;99.90;;;;;;4950142;28;20025;-65
2023/05/12 00:15:27;;;;;;;;;;;14.50;99.90;;;;;;4953548;28;19920;-64
2023/05/12 00:17:52;;;;;;;;;;;14.50;99.90;;;;;;4948274;28;19918;-64
2023/05/12 00:20:18;;;;;;;;;;;14.50;99.90;;;;;;4954625;28;19966;-64
2023/05/12 00:22:44;;;;;;;;;;;14.40;99.90;;;;;;4949553;28;19918;-64
2023/05/12 00:25:09;;;;;;;;;;;14.40;99.90;;;;;;4952054;28;19914;-64
2023/05/12 00:27:35;;;;;;;;;;;14.40;99.90;;;;;;4951343;28;20517;-64
2023/05/12 00:30:00;;;;;;;;;;;14.40;99.90;;;;;;4951746;28;21102;-64
2023/05/12 00:32:26;;;;;;;;;;;14.40;99.90;;;;;;4949235;28;20301;-63
2023/05/12 00:34:53;;;;;;;;;;;14.30;99.90;;;;;;4952292;28;19921;-63
2023/05/12 00:37:18;;;;;;;;;;;14.30;99.90;;;;;;4948491;28;20450;-63
2023/05/12 00:39:44;;;;;;;;;;;14.30;99.90;;;;;;4955828;28;19940;-63
2023/05/12 00:42:10;;;;;;;;;;;14.30;99.90;;;;;;4945236;28;20339;-76
2023/05/12 00:44:36;;;;;;;;;;;14.30;99.90;;;;;;4951500;28;19918;-75
2023/05/12 00:47:02;;;;;;;;;;;14.30;99.90;;;;;;4952760;28;20567;-75
2023/05/12 00:49:28;;;;;;;;;;;14.30;99.90;;;;;;4951469;28;20271;-76
2023/05/12 00:51:54;;;;;;;;;;;14.30;99.90;;;;;;4953191;28;20000;-76
2023/05/12 00:54:20;;;;;;;;;;;14.30;99.90;;;;;;4947659;28;20013;-75
2023/05/12 00:56:46;;;;;;;;;;;14.30;99.90;;;;;;4945707;28;20388;-76
2023/05/12 00:59:12;;;;;;;;;;;14.30;99.90;;;;;;4949045;28;20544;-63
2023/05/12 01:01:37;;;;;;;;;;;14.30;99.90;;;;;;4946636;28;19932;-64
2023/05/12 01:04:03;;;;;;;;;;;14.30;99.90;;;;;;4945431;28;19926;-62
2023/05/12 01:06:33;;;;;;;;;;;14.30;99.90;;;;;;4950789;28;20520;-63
2023/05/12 01:08:58;;;;;;;;;;;14.30;99.90;;;;;;4949636;28;19917;-62
2023/05/12 01:11:24;;;;;;;;;;;14.30;99.90;;;;;;4948667;28;19914;-62
2023/05/12 01:13:49;;;;;;;;;;;14.20;99.90;;;;;;4950541;28;19918;-63
2023/05/12 01:16:18;;;;;;;;;;;14.20;99.90;;;;;;4947666;28;19918;-62
2023/05/12 01:18:48;;;;;;;;;;;14.20;99.90;;;;;;4924661;28;20523;-63
2023/05/12 01:21:15;;;;;;;;;;;14.20;99.90;;;;;;4941151;28;19926;-63
2023/05/12 01:23:43;;;;;;;;;;;14.20;99.90;;;;;;4948910;28;19918;-62
2023/05/12 01:26:09;;;;;;;;;;;14.10;99.90;;;;;;4952858;28;19914;-62
2023/05/12 01:28:35;;;;;;;;;;;14.00;99.90;;;;;;4946753;28;20360;-63
2023/05/12 01:31:02;;;;;;;;;;;14.00;99.90;;;;;;4947928;28;19914;-62
2023/05/12 01:33:27;;;;;;;;;;;13.80;99.90;;;;;;4941407;28;19915;-62
2023/05/12 01:35:53;;;;;;;;;;;13.70;99.90;;;;;;4948680;28;20009;-63
2023/05/12 01:38:18;;;;;;;;;;;13.70;99.90;;;;;;4951697;28;19918;-78
2023/05/12 01:40:44;;;;;;;;;;;13.60;99.90;;;;;;4949916;28;20622;-63
2023/05/12 01:43:09;;;;;;;;;;;13.60;99.90;;;;;;4948638;28;19925;-63
2023/05/12 01:45:35;;;;;;;;;;;13.60;99.90;;;;;;4948963;28;19913;-63
2023/05/12 01:48:00;;;;;;;;;;;13.60;99.90;;;;;;4949819;28;19925;-62
2023/05/12 01:50:26;;;;;;;;;;;13.60;99.90;;;;;;4944862;28;19945;-63
2023/05/12 01:52:52;;;;;;;;;;;13.60;99.90;;;;;;4947242;28;19914;-64
2023/05/12 01:55:17;;;;;;;;;;;13.60;99.90;;;;;;4946435;28;20113;-63
2023/05/12 01:57:43;;;;;;;;;;;13.70;99.90;;;;;;4949993;28;19910;-63
2023/05/12 02:00:08;;;;;;;;;;;13.70;99.90;;;;;;4946306;28;19996;-63
2023/05/12 02:02:34;;;;;;;;;;;13.70;99.90;;;;;;4953368;28;19923;-64
2023/05/12 02:05:00;;;;;;;;;;;13.70;99.90;;;;;;4950680;28;19992;-64
2023/05/12 02:07:25;;;;;;;;;;;13.80;99.90;;;;;;4952749;28;20013;-63
2023/05/12 02:09:51;;;;;;;;;;;13.80;99.90;;;;;;4954059;28;19968;-63
2023/05/12 02:12:16;;;;;;;;;;;13.70;99.90;;;;;;4951554;28;20282;-63
2023/05/12 02:14:42;;;;;;;;;;;13.80;99.90;;;;;;4955571;28;19910;-63
2023/05/12 02:17:07;;;;;;;;;;;13.80;99.90;;;;;;4946160;28;20633;-78
2023/05/12 02:19:33;;;;;;;;;;;13.80;99.90;;;;;;4946738;28;19921;-78
2023/05/12 02:21:59;;;;;;;;;;;13.80;99.90;;;;;;4949267;28;19926;-78
2023/05/12 02:24:24;;;;;;;;;;;13.80;99.90;;;;;;4962287;28;19921;-78
2023/05/12 02:26:50;;;;;;;;;;;13.80;99.90;;;;;;4946211;28;19980;-77
2023/05/12 02:29:15;;;;;;;;;;;13.90;99.90;;;;;;4948695;28;19914;-78
2023/05/12 02:31:41;;;;;;;;;;;13.90;99.90;;;;;;4950419;28;19918;-78
2023/05/12 02:34:06;;;;;;;;;;;13.90;99.90;;;;;;4951102;28;20701;-79
2023/05/12 02:36:32;;;;;;;;;;;13.90;99.90;;;;;;4948218;28;19952;-63
2023/05/12 02:38:58;;;;;;;;;;;13.80;99.90;;;;;;4945589;28;19918;-63
2023/05/12 02:41:23;;;;;;;;;;;13.80;99.90;;;;;;4949838;28;19975;-63
2023/05/12 02:43:49;;;;;;;;;;;13.90;99.90;;;;;;4945156;28;20017;-63
2023/05/12 02:46:14;;;;;;;;;;;13.80;99.90;;;;;;4951166;28;21374;-63
2023/05/12 02:48:39;;;;;;;;;;;13.80;99.90;;;;;;4954250;28;19914;-63
2023/05/12 02:51:05;;;;;;;;;;;13.80;99.90;;;;;;4951893;28;19913;-63
2023/05/12 02:53:31;;;;;;;;;;;13.80;99.90;;;;;;4951784;28;20080;-63
2023/05/12 02:55:56;;;;;;;;;;;13.80;99.90;;;;;;4952925;28;20497;-63
2023/05/12 02:58:22;;;;;;;;;;;13.80;99.90;;;;;;4949502;28;19910;-63
2023/05/12 03:00:47;;;;;;;;;;;13.80;99.90;;;;;;4952202;28;19918;-63
2023/05/12 03:03:13;;;;;;;;;;;13.70;99.90;;;;;;4955578;28;20370;-63
2023/05/12 03:05:38;;;;;;;;;;;13.70;99.90;;;;;;4954012;28;20013;-63
2023/05/12 03:08:04;;;;;;;;;;;13.70;99.90;;;;;;4950377;28;19969;-63
2023/05/12 03:10:29;;;;;;;;;;;13.70;99.90;;;;;;4949189;28;19914;-63
2023/05/12 03:12:55;;;;;;;;;;;13.70;99.90;;;;;;4956563;28;19921;-63
2023/05/12 03:15:20;;;;;;;;;;;13.70;99.90;;;;;;4950059;28;19918;-63
2023/05/12 03:17:46;;;;;;;;;;;13.60;99.90;;;;;;4953632;28;20375;-63
2023/05/12 03:20:11;;;;;;;;;;;13.60;99.90;;;;;;4954437;28;19913;-63
2023/05/12 03:22:37;;;;;;;;;;;13.60;99.90;;;;;;4952700;28;20034;-64
2023/05/12 03:25:04;;;;;;;;;;;13.60;99.90;;;;;;4954909;28;19918;-63
2023/05/12 03:27:32;;;;;;;;;;;13.60;99.90;;;;;;4953217;28;19918;-63
2023/05/12 03:29:59;;;;;;;;;;;13.50;99.90;;;;;;4955556;28;19965;-63
2023/05/12 03:32:25;;;;;;;;;;;13.50;99.90;;;;;;4954247;28;19917;-62
2023/05/12 03:34:51;;;;;;;;;;;13.50;99.90;;;;;;4953425;28;19918;-63
2023/05/12 03:37:16;;;;;;;;;;;13.60;99.90;;;;;;4954614;28;19914;-63
2023/05/12 03:39:42;;;;;;;;;;;13.60;99.90;;;;;;4955891;28;19972;-63
2023/05/12 03:42:07;;;;;;;;;;;13.60;99.90;;;;;;4956187;28;19947;-63
2023/05/12 03:44:33;;;;;;;;;;;13.60;99.90;;;;;;4953915;28;19933;-63
2023/05/12 03:46:58;;;;;;;;;;;13.60;99.90;;;;;;4958459;28;19961;-63
2023/05/12 03:49:24;;;;;;;;;;;13.50;99.90;;;;;;4954176;28;19969;-63
2023/05/12 03:51:49;;;;;;;;;;;13.50;99.90;;;;;;4955160;28;19926;-63
2023/05/12 03:54:15;;;;;;;;;;;13.50;99.90;;;;;;4952876;28;19918;-78
2023/05/12 03:56:40;;;;;;;;;;;13.50;99.90;;;;;;4958534;28;19914;-78
2023/05/12 03:59:06;;;;;;;;;;;13.50;99.90;;;;;;4951596;28;20427;-78
2023/05/12 04:01:31;;;;;;;;;;;13.50;99.90;;;;;;4953621;28;19926;-78
2023/05/12 04:03:57;;;;;;;;;;;13.50;99.90;;;;;;4959369;28;20008;-78
2023/05/12 04:06:22;;;;;;;;;;;13.50;99.90;;;;;;4942012;28;19967;-78
2023/05/12 04:08:48;;;;;;;;;;;13.50;99.90;;;;;;4951822;28;19934;-78
2023/05/12 04:11:13;;;;;;;;;;;13.50;99.90;;;;;;4947900;28;19919;-79
2023/05/12 04:13:39;;;;;;;;;;;13.50;99.90;;;;;;4953526;28;19918;-77
2023/05/12 04:16:04;;;;;;;;;;;13.50;99.90;;;;;;4951226;28;20264;-77
2023/05/12 04:18:30;;;;;;;;;;;13.50;99.90;;;;;;4961449;28;19918;-77
2023/05/12 04:20:55;;;;;;;;;;;13.50;99.90;;;;;;4948720;28;20095;-76
2023/05/12 04:23:21;;;;;;;;;;;13.50;99.90;;;;;;4954877;28;19949;-77
2023/05/12 04:25:47;;;;;;;;;;;13.50;99.90;;;;;;4948325;28;19914;-77
2023/05/12 04:28:12;;;;;;;;;;;13.50;99.90;;;;;;4956688;28;19918;-79
2023/05/12 04:30:38;;;;;;;;;;;13.50;99.90;;;;;;4955887;28;20615;-78
2023/05/12 04:33:03;;;;;;;;;;;13.50;99.90;;;;;;4952489;28;19914;-78
2023/05/12 04:35:29;;;;;;;;;;;13.50;99.90;;;;;;4951086;28;19921;-79
2023/05/12 04:37:54;;;;;;;;;;;13.50;99.90;;;;;;4948630;28;19937;-77
2023/05/12 04:40:20;;;;;;;;;;;13.50;99.90;;;;;;4950306;28;19940;-78
2023/05/12 04:42:46;;;;;;;;;;;13.50;99.90;;;;;;4949060;28;19992;-76
2023/05/12 04:45:11;;;;;;;;;;;13.40;99.90;;;;;;4951748;28;20405;-78
2023/05/12 04:47:36;;;;;;;;;;;13.40;99.90;;;;;;4955435;28;19945;-77
2023/05/12 04:50:03;;;;;;;;;;;13.50;99.90;;;;;;4954442;28;20065;-64
2023/05/12 04:52:29;;;;;;;;;;;13.50;99.90;;;;;;4953925;28;19922;-64
2023/05/12 04:54:54;;;;;;;;;;;13.50;99.90;;;;;;4949803;28;19918;-64
2023/05/12 04:57:20;;;;;;;;;;;13.50;99.90;;;;;;4951065;28;19921;-63
2023/05/12 04:59:45;;;;;;;;;;;13.50;99.90;;;;;;4952739;28;19922;-63
2023/05/12 05:02:11;;;;;;;;;;;13.50;99.90;;;;;;4949821;28;20461;-62
2023/05/12 05:04:37;;;;;;;;;;;13.50;99.90;;;;;;4942445;28;19922;-62
2023/05/12 05:07:02;;;;;;;;;;;13.50;99.90;;;;;;4939940;28;19918;-62
2023/05/12 05:09:28;;;;;;;;;;;13.50;99.90;;;;;;4950602;28;19921;-62
2023/05/12 05:11:53;;;;;;;;;;;13.60;99.90;;;;;;4949679;28;19918;-62
2023/05/12 05:14:19;;;;;;;;;;;13.60;99.90;;;;;;4947706;28;19925;-66
2023/05/12 05:16:45;;;;;;;;;;;13.60;99.90;;;;;;4951195;28;20382;-65
2023/05/12 05:19:12;;;;;;;;;;;13.60;99.90;;;;;;4953071;28;19918;-65
2023/05/12 05:21:37;;;;;;;;;;;13.60;99.90;;;;;;4950509;28;20744;-62
2023/05/12 05:24:03;;;;;;;;;;;13.70;99.90;;;;;;4946797;28;19922;-62
2023/05/12 05:26:29;;;;;;;;;;;13.70;99.90;;;;;;4949355;28;19914;-75
2023/05/12 05:28:54;;;;;;;;;;;13.70;99.90;;;;;;4948559;28;20391;-61
2023/05/12 05:31:20;;;;;;;;;;;13.70;99.90;;;;;;4951170;28;19933;-62
2023/05/12 05:33:46;;;;;;;;;;;13.70;99.90;;;;;;4951531;28;19910;-62
2023/05/12 05:36:12;;;;;;;;;;;13.70;99.90;;;;;;4940497;28;20389;-62
2023/05/12 05:38:37;;;;;;;;;;;13.70;99.90;;;;;;4942404;28;19922;-63
2023/05/12 05:41:03;;;;;;;;;;;13.70;99.90;;;;;;4946997;28;19925;-63
2023/05/12 05:43:29;;;;;;;;;;;13.70;99.90;;;;;;4946756;28;20007;-63
2023/05/12 05:45:55;;;;;;;;;;;13.70;99.90;;;;;;4946204;28;19925;-63
2023/05/12 05:48:21;;;;;;;;;;;13.70;99.90;;;;;;4954586;28;21261;-63
2023/05/12 05:50:47;;;;;;;;;;;13.70;99.90;;;;;;4952983;28;20030;-63
2023/05/12 05:53:13;;;;;;;;;;;13.70;99.90;;;;;;4954273;28;19914;-64
2023/05/12 05:55:38;;;;;;;;;;;13.70;99.90;;;;;;4952281;28;19914;-64
2023/05/12 05:58:04;;;;;;;;;;;13.70;99.90;;;;;;4951091;28;19914;-64
2023/05/12 06:00:29;;;;;;;;;;;13.70;99.90;;;;;;4954587;28;19954;-63
2023/05/12 06:02:55;;;;;;;;;;;13.70;99.90;;;;;;4956590;28;20333;-63
2023/05/12 06:05:21;;;;;;;;;;;13.70;99.90;;;;;;4954200;28;20371;-78
2023/05/12 06:07:47;;;;;;;;;;;13.80;99.90;;;;;;4955210;28;19919;-63
2023/05/12 06:10:13;;;;;;;;;;;13.80;99.90;;;;;;4959438;28;19973;-63
2023/05/12 06:12:42;;;;;;;;;;;13.80;99.90;;;;;;4960209;28;20307;-64
2023/05/12 06:15:07;;;;;;;;;;;13.80;99.90;;;;;;4958241;28;19914;-64
2023/05/12 06:17:33;;;;;;;;;;;13.90;99.90;;;;;;4956835;28;20437;-64
2023/05/12 06:19:58;;;;;;;;;;;13.90;99.90;;;;;;4956869;28;19941;-63
2023/05/12 06:22:24;;;;;;;;;;;14.00;99.90;;;;;;4959850;28;19920;-64
2023/05/12 06:24:49;;;;;;;;;;;13.90;99.90;;;;;;4955498;28;20399;-63
2023/05/12 06:27:15;;;;;;;;;;;13.90;99.90;;;;;;4954108;28;20008;-63
2023/05/12 06:29:41;;;;;;;;;;;13.90;99.90;;;;;;4951164;28;19918;-63
2023/05/12 06:32:07;;;;;;;;;;;14.00;99.90;;;;;;4949451;28;19993;-63
2023/05/12 06:34:32;;;;;;;;;;;14.00;99.90;;;;;;4955923;28;20371;-63
2023/05/12 06:36:58;;;;;;;;;;;14.00;99.90;;;;;;4957510;28;19922;-63
2023/05/12 06:39:23;;;;;;;;;;;14.00;99.90;;;;;;4950764;28;19906;-63
2023/05/12 06:41:49;;;;;;;;;;;14.00;99.90;;;;;;4957626;28;19925;-63
2023/05/12 06:44:14;;;;;;;;;;;14.00;99.90;;;;;;4955448;28;20374;-63
2023/05/12 06:46:40;;;;;;;;;;;14.00;99.90;;;;;;4956611;28;19958;-63
2023/05/12 06:49:06;;;;;;;;;;;14.00;99.90;;;;;;4957804;28;19910;-63
2023/05/12 06:51:32;;;;;;;;;;;14.00;99.90;;;;;;4947283;28;20073;-63
2023/05/12 06:53:58;;;;;;;;;;;14.00;99.90;;;;;;4960329;28;19949;-63
2023/05/12 06:56:24;;;;;;;;;;;14.00;99.90;;;;;;4950816;28;20343;-64
2023/05/12 06:58:51;;;;;;;;;;;14.10;99.90;;;;;;4956173;28;19915;-64
2023/05/12 07:01:17;;;;;;;;;;;14.10;99.90;;;;;;4952349;28;19925;-64
2023/05/12 07:03:42;;;;;;;;;;;14.10;99.90;;;;;;4957101;28;19964;-78
2023/05/12 07:06:08;;;;;;;;;;;14.10;99.90;;;;;;4954012;28;20215;-78
2023/05/12 07:08:34;;;;;;;;;;;14.00;99.90;;;;;;4951953;28;19918;-78
2023/05/12 07:10:59;;;;;;;;;;;14.10;99.90;;;;;;4957895;28;20425;-78
2023/05/12 07:13:25;;;;;;;;;;;14.10;99.90;;;;;;4959072;28;19917;-79
2023/05/12 07:15:51;;;;;;;;;;;14.10;99.90;;;;;;4958337;28;19914;-78
2023/05/12 07:18:16;;;;;;;;;;;14.10;99.90;;;;;;4954608;28;20402;-78
2023/05/12 07:20:42;;;;;;;;;;;14.10;99.90;;;;;;4957837;28;19910;-78
2023/05/12 07:23:08;;;;;;;;;;;14.10;99.90;;;;;;4955697;28;19944;-64
2023/05/12 07:25:33;;;;;;;;;;;14.10;99.90;;;;;;4961648;28;19918;-63
2023/05/12 07:27:59;;;;;;;;;;;14.10;99.90;;;;;;4956400;28;19921;-64
2023/05/12 07:30:24;;;;;;;;;;;14.10;99.90;;;;;;4958388;28;20010;-63
2023/05/12 07:32:50;;;;;;;;;;;14.10;99.90;;;;;;4953825;28;19915;-63
2023/05/12 07:35:16;;;;;;;;;;;14.00;99.90;;;;;;4959038;28;19921;-64
2023/05/12 07:37:42;;;;;;;;;;;14.10;99.90;;;;;;4957201;28;20568;-64
2023/05/12 07:40:07;;;;;;;;;;;14.10;99.90;;;;;;4957269;28;20306;-64
2023/05/12 07:42:33;;;;;;;;;;;14.10;99.90;;;;;;4956538;28;20378;-64
2023/05/12 07:44:58;;;;;;;;;;;14.10;99.90;;;;;;4955751;28;20572;-64
2023/05/12 07:47:24;;;;;;;;;;;14.20;99.90;;;;;;4949069;28;19917;-64
2023/05/12 07:49:49;;;;;;;;;;;14.10;99.90;;;;;;4954058;28;20020;-64
2023/05/12 07:52:15;;;;;;;;;;;14.10;99.90;;;;;;4955860;28;20493;-64
2023/05/12 07:54:40;;;;;;;;;;;14.20;99.90;;;;;;4955844;28;19914;-64
2023/05/12 07:57:06;;;;;;;;;;;14.20;99.90;;;;;;4957983;28;19910;-64
2023/05/12 07:59:32;;;;;;;;;;;14.20;99.90;;;;;;4945168;28;19913;-64
2023/05/12 08:01:57;;;;;;;;;;;14.10;99.90;;;;;;4943219;28;20906;-64
2023/05/12 08:04:23;;;;;;;;;;;14.10;99.90;;;;;;4941751;28;20021;-64
2023/05/12 08:06:48;;;;;;;;;;;14.10;99.90;;;;;;4946839;28;19922;-64
2023/05/12 08:09:14;;;;;;;;;;;14.20;99.90;;;;;;4949277;28;19918;-64
2023/05/12 08:11:40;;;;;;;;;;;14.20;99.90;;;;;;4954301;28;19920;-63
2023/05/12 08:14:06;;;;;;;;;;;14.20;99.90;;;;;;4954802;28;19937;-63
2023/05/12 08:16:31;;;;;;;;;;;14.20;99.90;;;;;;4950434;28;20513;-63
2023/05/12 08:18:57;;;;;;;;;;;14.20;99.90;;;;;;4952108;28;19965;-63
2023/05/12 08:21:23;;;;;;;;;;;14.20;99.90;;;;;;4951084;28;20061;-64
2023/05/12 08:23:48;;;;;;;;;;;14.20;99.90;;;;;;4951978;28;19972;-63
2023/05/12 08:26:14;;;;;;;;;;;14.20;99.90;;;;;;4955009;28;20342;-64
2023/05/12 08:28:39;;;;;;;;;;;14.20;99.90;;;;;;4952195;28;19918;-64
2023/05/12 08:31:05;;;;;;;;;;;14.20;99.90;;;;;;4946414;28;19918;-64
2023/05/12 08:33:32;;;;;;;;;;;14.20;99.90;;;;;;4949457;28;20815;-64
2023/05/12 08:35:58;;;;;;;;;;;14.20;99.90;;;;;;4948205;28;19920;-64
2023/05/12 08:38:23;;;;;;;;;;;14.20;99.90;;;;;;4956686;28;19910;-64
2023/05/12 08:40:58;;;;;;;;;;;14.20;99.90;;;;;;4954013;28;19913;-64
2023/05/12 08:43:37;;;;;;;;;;;14.20;99.90;;;;;;4954216;28;19914;-64
2023/05/12 08:46:03;;;;;;;;;;;14.20;99.90;;;;;;4954181;28;19918;-64
2023/05/12 08:48:30;;;;;;;;;;;14.20;99.90;;;;;;4950485;28;19914;-64
2023/05/12 08:50:56;;;;;;;;;;;14.00;99.90;;;;;;4944395;28;20620;-64
2023/05/12 08:53:22;;;;;;;;;;;14.00;99.90;;;;;;4951517;28;20012;-64
2023/05/12 08:55:49;;;;;;;;;;;14.10;99.90;;;;;;4948850;28;19980;-63
2023/05/12 08:58:15;;;;;;;;;;;14.10;99.90;;;;;;4951177;28;19925;-62
2023/05/12 09:00:40;;;;;;;;;;;13.90;99.90;;;;;;4948142;28;19922;-63
2023/05/12 09:03:06;;;;;;;;;;;13.60;99.90;;;;;;4953204;28;20399;-62
2023/05/12 09:05:32;;;;;;;;;;;13.60;99.90;;;;;;4953681;28;20115;-62
2023/05/12 09:07:59;;;;;;;;;;;13.60;99.90;;;;;;4949438;28;19918;-62
2023/05/12 09:10:26;;;;;;;;;;;13.70;99.90;;;;;;4950677;28;19917;-63
2023/05/12 09:12:53;;;;;;;;;;;13.70;99.90;;;;;;4951224;28;20401;-62
2023/05/12 09:15:22;;;;;;;;;;;13.70;99.90;;;;;;4951938;28;20364;-63
2023/05/12 09:17:47;;;;;;;;;;;13.70;99.90;;;;;;4944144;28;20008;-63
2023/05/12 09:20:14;;;;;;;;;;;13.80;99.90;;;;;;4953511;28;19916;-64
2023/05/12 09:22:39;;;;;;;;;;;13.80;99.90;;;;;;4949999;28;20008;-63
2023/05/12 09:25:18;;;;;;;;;;;13.90;99.90;;;;;;4952403;28;20742;-63
2023/05/12 09:27:48;;;;;;;;;;;13.80;99.90;;;;;;4952196;28;19914;-63
2023/05/12 09:30:14;;;;;;;;;;;13.80;99.90;;;;;;4954462;28;20346;-62
2023/05/12 09:32:39;;;;;;;;;;;13.80;99.90;;;;;;4951950;28;19918;-62
2023/05/12 09:35:05;;;;;;;;;;;13.60;99.90;;;;;;4953445;28;19921;-76
2023/05/12 09:37:32;;;;;;;;;;;13.60;99.90;;;;;;4948686;28;19996;-62
2023/05/12 09:39:58;;;;;;;;;;;13.50;99.90;;;;;;4949005;28;19997;-62
2023/05/12 09:42:27;;;;;;;;;;;13.50;99.90;;;;;;4949903;28;19933;-62
2023/05/12 09:44:52;;;;;;;;;;;13.40;99.90;;;;;;4969349;28;19921;-63
2023/05/12 09:47:18;;;;;;;;;;;13.40;99.90;;;;;;4953348;28;19918;-62
2023/05/12 09:49:50;;;;;;;;;;;13.40;99.90;;;;;;4950961;28;19910;-62
2023/05/12 09:52:19;;;;;;;;;;;13.50;99.90;;;;;;4948651;28;19947;-62
2023/05/12 09:54:46;;;;;;;;;;;13.50;99.90;;;;;;4952221;28;21000;-76
2023/05/12 09:57:14;;;;;;;;;;;13.50;99.90;;;;;;4951937;28;20469;-76
2023/05/12 09:59:42;;;;;;;;;;;13.60;99.90;;;;;;4955705;28;19957;-75
2023/05/12 10:02:08;;;;;;;;;;;13.50;99.90;;;;;;4952890;28;20078;-75
2023/05/12 10:04:48;;;;;;;;;;;13.50;99.90;;;;;;4954380;28;19946;-75
2023/05/12 10:07:14;;;;;;;;;;;13.40;99.90;;;;;;4950107;28;19914;-75
2023/05/12 10:09:41;;;;;;;;;;;13.40;99.90;;;;;;4970143;28;19914;-76
2023/05/12 10:12:07;;;;;;;;;;;13.40;99.90;;;;;;4953303;28;20395;-76
2023/05/12 10:14:33;;;;;;;;;;;13.30;99.90;;;;;;4952476;28;19918;-76
2023/05/12 10:16:58;;;;;;;;;;;13.20;99.90;;;;;;4939567;28;20375;-76
2023/05/12 10:19:24;;;;;;;;;;;13.10;99.90;;;;;;4948001;28;19914;-76
2023/05/12 10:21:50;;;;;;;;;;;13.00;99.90;;;;;;4952247;28;19922;-76
2023/05/12 10:24:17;;;;;;;;;;;13.00;99.90;;;;;;4945350;28;19942;-74
2023/05/12 10:26:43;;;;;;;;;;;13.00;99.90;;;;;;4949215;28;20533;-77
2023/05/12 10:29:09;;;;;;;;;;;12.90;99.90;;;;;;4943924;28;19961;-79
2023/05/12 10:31:36;;;;;;;;;;;13.00;99.90;;;;;;4941555;28;20018;-77
2023/05/12 10:34:01;;;;;;;;;;;12.90;99.90;;;;;;4948640;28;19918;-73
2023/05/12 10:36:27;;;;;;;;;;;12.90;99.90;;;;;;4945326;28;19917;-76
2023/05/12 10:38:53;;;;;;;;;;;12.80;99.90;;;;;;4949205;28;20354;-76
2023/05/12 10:41:29;;;;;;;;;;;12.90;99.90;;;;;;4943974;28;19926;-75
2023/05/12 10:43:55;;;;;;;;;;;12.90;99.90;;;;;;4950982;28;19913;-76
2023/05/12 10:46:21;;;;;;;;;;;13.00;99.90;;;;;;4943550;28;20373;-76
2023/05/12 10:48:54;;;;;;;;;;;13.00;99.90;;;;;;4948691;28;19917;-76
2023/05/12 10:51:21;;;;;;;;;;;13.00;99.90;;;;;;4950071;28;19914;-75
2023/05/12 10:53:49;;;;;;;;;;;13.10;99.90;;;;;;4955839;28;20413;-75
2023/05/12 10:56:20;;;;;;;;;;;13.10;99.90;;;;;;4949561;28;20367;-75
2023/05/12 10:59:05;;;;;;;;;;;13.10;99.90;;;;;;4952493;28;19914;-75
2023/05/12 11:01:31;;;;;;;;;;;13.10;99.90;;;;;;4950970;28;19926;-75
2023/05/12 11:03:57;;;;;;;;;;;13.10;99.90;;;;;;4946010;28;20032;-74
2023/05/12 11:06:28;;;;;;;;;;;13.20;99.90;;;;;;4950652;28;20389;-76
2023/05/12 11:08:54;;;;;;;;;;;13.30;99.90;;;;;;4949898;28;20343;-74
2023/05/12 11:11:21;;;;;;;;;;;13.20;99.90;;;;;;4956466;28;20665;-63
2023/05/12 11:13:46;;;;;;;;;;;13.20;99.90;;;;;;4951639;28;19937;-63
2023/05/12 11:16:12;;;;;;;;;;;13.30;99.90;;;;;;4954533;28;20665;-63
2023/05/12 11:18:38;;;;;;;;;;;13.30;99.90;;;;;;4950317;28;19914;-63
2023/05/12 11:21:11;;;;;;;;;;;13.20;99.90;;;;;;4952765;28;20716;-63
2023/05/12 11:23:36;;;;;;;;;;;13.20;99.90;;;;;;4950201;28;19953;-63
2023/05/12 11:26:03;;;;;;;;;;;13.30;99.90;;;;;;4952320;28;20397;-63
2023/05/12 11:28:38;;;;;;;;;;;13.30;99.90;;;;;;4951049;28;19910;-63
2023/05/12 11:31:03;;;;;;;;;;;13.40;99.90;;;;;;4951899;28;20416;-63
2023/05/12 11:33:29;;;;;;;;;;;13.30;99.90;;;;;;4951181;28;19921;-64
2023/05/12 11:35:54;;;;;;;;;;;13.30;99.90;;;;;;4956363;28;19967;-63
2023/05/12 11:38:23;;;;;;;;;;;13.20;99.90;;;;;;4948376;28;19914;-63
2023/05/12 11:40:48;;;;;;;;;;;13.20;99.90;;;;;;4953580;28;19977;-63
2023/05/12 11:43:18;;;;;;;;;;;13.30;99.90;;;;;;4953332;28;19993;-64
2023/05/12 11:45:44;;;;;;;;;;;13.40;99.90;;;;;;4956613;28;19949;-63
2023/05/12 11:48:11;;;;;;;;;;;13.40;99.90;;;;;;4954318;28;19952;-63
2023/05/12 11:50:38;;;;;;;;;;;13.50;99.90;;;;;;4950783;28;19917;-63
2023/05/12 11:53:04;;;;;;;;;;;13.50;99.90;;;;;;4953364;28;20291;-63
2023/05/12 11:55:29;;;;;;;;;;;13.50;99.90;;;;;;4953059;28;19915;-63
2023/05/12 11:57:56;;;;;;;;;;;13.50;99.90;;;;;;4954798;28;20479;-64
2023/05/12 12:00:32;;;;;;;;;;;13.40;99.90;;;;;;4953835;28;19910;-63
2023/05/12 12:03:05;;;;;;;;;;;13.30;99.90;;;;;;4948066;28;20106;-63
2023/05/12 12:05:30;;;;;;;;;;;13.40;99.90;;;;;;4942071;28;19914;-63
2023/05/12 12:08:03;;;;;;;;;;;13.40;99.90;;;;;;4947555;28;20347;-63
2023/05/12 12:10:28;;;;;;;;;;;13.40;99.90;;;;;;4947965;28;19918;-63
2023/05/12 12:12:54;;;;;;;;;;;13.50;99.90;;;;;;4945457;28;20442;-63
2023/05/12 12:15:20;;;;;;;;;;;13.40;99.90;;;;;;4950197;28;20394;-63
2023/05/12 12:17:45;;;;;;;;;;;13.30;99.90;;;;;;4939944;28;19964;-63
2023/05/12 12:20:11;;;;;;;;;;;13.30;99.90;;;;;;4944930;28;19924;-63
2023/05/12 12:22:36;;;;;;;;;;;13.30;99.90;;;;;;4947346;28;20654;-63
2023/05/12 12:25:02;;;;;;;;;;;13.40;99.90;;;;;;4945729;28;20419;-64
2023/05/12 12:27:28;;;;;;;;;;;13.40;99.90;;;;;;4946451;28;19918;-76
2023/05/12 12:29:53;;;;;;;;;;;13.50;99.90;;;;;;4944686;28;19941;-74
2023/05/12 12:32:19;;;;;;;;;;;13.50;99.90;;;;;;4950879;28;20598;-75
2023/05/12 12:34:45;;;;;;;;;;;13.50;99.90;;;;;;4950911;28;19918;-75
2023/05/12 12:37:10;;;;;;;;;;;13.50;99.90;;;;;;4950683;28;19917;-74
2023/05/12 12:39:36;;;;;;;;;;;13.60;99.90;;;;;;4950447;28;19917;-75
2023/05/12 12:42:02;;;;;;;;;;;13.60;99.90;;;;;;4951778;28;20364;-74
2023/05/12 12:44:27;;;;;;;;;;;13.60;99.90;;;;;;4950979;28;19929;-76
2023/05/12 12:46:53;;;;;;;;;;;13.50;99.90;;;;;;4945053;28;19919;-75
2023/05/12 12:49:18;;;;;;;;;;;13.30;99.90;;;;;;4950243;28;21198;-76
2023/05/12 12:51:44;;;;;;;;;;;13.30;99.90;;;;;;4951635;28;19918;-76
2023/05/12 12:54:09;;;;;;;;;;;13.20;99.90;;;;;;4951324;28;19918;-75
2023/05/12 12:56:35;;;;;;;;;;;13.20;99.90;;;;;;4950567;28;19985;-76
2023/05/12 12:59:01;;;;;;;;;;;13.20;99.90;;;;;;4948918;28;20036;-75
2023/05/12 13:01:27;;;;;;;;;;;13.20;99.90;;;;;;4950523;28;20378;-75
2023/05/12 13:03:52;;;;;;;;;;;13.30;99.90;;;;;;4950839;28;19944;-75
2023/05/12 13:06:18;;;;;;;;;;;13.30;99.90;;;;;;4951974;28;20418;-63
2023/05/12 13:08:43;;;;;;;;;;;13.40;99.90;;;;;;4951812;28;19918;-63
2023/05/12 13:11:09;;;;;;;;;;;13.40;99.90;;;;;;4951809;28;20201;-63
2023/05/12 13:13:35;;;;;;;;;;;13.40;99.90;;;;;;4951763;28;20441;-63
2023/05/12 13:16:01;;;;;;;;;;;13.40;99.90;;;;;;4952605;28;19918;-63
2023/05/12 13:18:26;;;;;;;;;;;13.40;99.90;;;;;;4949839;28;19910;-64
2023/05/12 13:20:53;;;;;;;;;;;13.40;99.90;;;;;;4950744;28;19918;-64
2023/05/12 13:23:19;;;;;;;;;;;13.40;99.90;;;;;;4951732;28;19980;-64
2023/05/12 13:25:45;;;;;;;;;;;13.40;99.90;;;;;;4942679;28;19952;-76
2023/05/12 13:28:11;;;;;;;;;;;13.50;99.90;;;;;;4952649;28;19917;-75
2023/05/12 13:30:36;;;;;;;;;;;13.50;99.90;;;;;;4954896;28;19918;-76
2023/05/12 13:33:02;;;;;;;;;;;13.50;99.90;;;;;;4951328;28;19915;-75
2023/05/12 13:35:28;;;;;;;;;;;13.50;99.90;;;;;;4952576;28;19910;-74
2023/05/12 13:37:55;;;;;;;;;;;13.60;99.90;;;;;;4957070;28;19976;-75
2023/05/12 13:40:20;;;;;;;;;;;13.60;99.90;;;;;;4953854;28;19978;-75
2023/05/12 13:42:46;;;;;;;;;;;13.70;99.90;;;;;;4953102;28;19926;-75
2023/05/12 13:45:12;;;;;;;;;;;13.60;99.90;;;;;;4951972;28;20355;-63
2023/05/12 13:47:37;;;;;;;;;;;13.60;99.90;;;;;;4952390;28;19922;-63
2023/05/12 13:50:03;;;;;;;;;;;13.70;99.90;;;;;;4944106;28;20485;-63
2023/05/12 13:52:29;;;;;;;;;;;13.70;99.90;;;;;;4947811;28;19917;-63
2023/05/12 13:54:54;;;;;;;;;;;13.60;99.90;;;;;;4947441;28;19974;-64
2023/05/12 13:57:20;;;;;;;;;;;13.60;99.90;;;;;;4947772;28;19914;-65
2023/05/12 13:59:45;;;;;;;;;;;13.60;99.90;;;;;;4953480;28;19925;-64
2023/05/12 14:02:12;;;;;;;;;;;13.60;99.90;;;;;;4950720;28;19922;-65
2023/05/12 14:04:38;;;;;;;;;;;13.60;99.90;;;;;;4951367;28;19922;-65
2023/05/12 14:07:04;;;;;;;;;;;13.60;99.90;;;;;;4952764;28;19921;-65
2023/05/12 14:09:30;;;;;;;;;;;13.60;99.90;;;;;;4938786;28;20374;-65